Time;durP1;ratioP1;P1;durP2;ratioP2;P2;SDS_P1;SDS_P2;PMS_P1;PMS_P2;Temp;Humidity;BMP_temperature;BMP_pressure;BME280_temperature;BME280_humidity;BME280_pressure;Samples;Min_cycle;Max_cycle;Signal;HPM_P1;HPM_P2
2023/05/17 00:00:40;;;;;;;2.83;1.30;;;;;;;10.13;100.00;96878.34;5076457;28;20292;-60
2023/05/17 00:03:07;;;;;;;2.03;1.40;;;;;;;10.11;100.00;96876.81;5075543;28;20215;-60
2023/05/17 00:05:33;;;;;;;3.40;1.37;;;;;;;10.04;100.00;96883.59;5074706;28;20297;-60
2023/05/17 00:08:00;;;;;;;1.70;1.60;;;;;;;10.03;100.00;96888.06;5073177;28;20550;-60
2023/05/17 00:10:26;;;;;;;2.67;1.40;;;;;;;9.97;100.00;96883.31;5072500;28;20218;-60
2023/05/17 00:12:53;;;;;;;4.63;1.60;;;;;;;9.96;100.00;96877.19;5072805;28;20234;-60
2023/05/17 00:15:19;;;;;;;1.63;1.47;;;;;;;9.94;100.00;96878.28;5073302;28;20206;-60
2023/05/17 00:17:47;;;;;;;6.50;2.10;;;;;;;9.89;100.00;96873.41;5072335;28;20213;-60
2023/05/17 00:20:13;;;;;;;5.17;2.00;;;;;;;9.85;100.00;96874.63;5073059;28;20237;-61
2023/05/17 00:22:42;;;;;;;3.93;2.07;;;;;;;9.84;100.00;96878.28;5072042;28;20240;-60
2023/05/17 00:25:09;;;;;;;5.07;2.10;;;;;;;9.82;100.00;96877.53;5072360;28;20309;-61
2023/05/17 00:27:35;;;;;;;2.77;1.60;;;;;;;9.84;100.00;96883.56;5072564;28;20206;-60
2023/05/17 00:30:02;;;;;;;4.20;2.10;;;;;;;9.80;100.00;96874.22;5072346;28;20570;-60
2023/05/17 00:32:28;;;;;;;4.63;1.90;;;;;;;9.77;100.00;96877.13;5072327;28;20213;-60
2023/05/17 00:34:56;;;;;;;4.20;1.70;;;;;;;9.76;100.00;96875.44;5072665;28;20581;-60
2023/05/17 00:37:22;;;;;;;2.50;1.80;;;;;;;9.68;100.00;96875.25;5072484;28;20215;-60
2023/05/17 00:39:49;;;;;;;3.27;2.00;;;;;;;9.70;100.00;96875.97;5072664;28;20356;-60
2023/05/17 00:42:15;;;;;;;1.47;1.37;;;;;;;9.69;100.00;96874.31;5072427;28;20218;-60
2023/05/17 00:44:42;;;;;;;3.73;1.97;;;;;;;9.68;100.00;96882.34;5072169;28;20203;-60
2023/05/17 00:47:08;;;;;;;5.20;1.93;;;;;;;9.71;100.00;96866.22;5072336;28;20771;-60
2023/05/17 00:49:35;;;;;;;2.50;1.33;;;;;;;9.74;98.33;96871.28;5071742;28;20202;-60
2023/05/17 00:52:03;;;;;;;2.53;1.50;;;;;;;9.67;100.00;96875.41;5072914;28;20218;-60
2023/05/17 00:54:30;;;;;;;2.20;1.40;;;;;;;9.68;100.00;96877.91;5072192;28;20202;-60
2023/05/17 00:56:58;;;;;;;4.20;1.57;;;;;;;9.71;100.00;96872.34;5072299;28;20207;-61
2023/05/17 00:59:26;;;;;;;4.13;1.70;;;;;;;9.74;100.00;96871.28;5071708;28;20284;-60
2023/05/17 01:01:52;;;;;;;2.83;1.53;;;;;;;9.69;91.98;96878.75;5072149;28;20202;-60
2023/05/17 01:04:18;;;;;;;3.30;1.30;;;;;;;9.74;98.80;96866.81;5072111;28;20579;-60
2023/05/17 01:06:45;;;;;;;3.13;1.33;;;;;;;9.75;94.68;96879.03;5071451;28;20203;-60
2023/05/17 01:09:13;;;;;;;3.77;1.27;;;;;;;9.68;90.36;96880.53;5071682;28;20199;-60
2023/05/17 01:11:46;;;;;;;2.77;1.67;;;;;;;9.77;96.59;96881.56;5071829;28;20539;-60
2023/05/17 01:14:22;;;;;;;3.40;1.33;;;;;;;9.75;94.31;96876.41;5071561;28;20284;-60
2023/05/17 01:16:53;;;;;;;3.03;1.17;;;;;;;9.79;95.52;96880.47;5072485;28;20195;-61
2023/05/17 01:19:36;;;;;;;3.80;1.40;;;;;;;9.78;94.50;96881.41;5071231;28;20226;-60
2023/05/17 01:22:11;;;;;;;6.33;1.70;;;;;;;9.81;100.00;96888.25;5071388;28;20238;-60
2023/05/17 01:24:44;;;;;;;2.90;1.47;;;;;;;9.84;93.11;96880.91;5071673;28;20232;-61
2023/05/17 01:27:13;;;;;;;3.60;1.43;;;;;;;9.80;91.57;96882.13;5071737;28;20194;-60
2023/05/17 01:29:40;;;;;;;5.00;1.40;;;;;;;9.75;90.93;96889.59;5070927;28;20210;-59
2023/05/17 01:32:07;;;;;;;3.57;1.33;;;;;;;9.73;88.49;96888.91;5071499;28;20658;-60
2023/05/17 01:34:35;;;;;;;2.90;1.40;;;;;;;9.78;88.84;96888.50;5071829;28;20221;-59
2023/05/17 01:37:01;;;;;;;1.03;1.00;;;;;;;9.79;87.14;96888.38;5071295;28;20268;-61
2023/05/17 01:39:28;;;;;;;3.17;1.27;;;;;;;9.79;90.25;96891.03;5071673;28;20223;-60
2023/05/17 01:41:58;;;;;;;2.77;1.10;;;;;;;9.84;90.62;96882.72;5070617;28;20535;-60
2023/05/17 01:44:30;;;;;;;4.97;1.50;;;;;;;9.82;89.60;96892.56;5071429;28;20226;-61
2023/05/17 01:47:01;;;;;;;2.53;1.47;;;;;;;9.81;84.46;96891.72;5071821;28;20213;-60
2023/05/17 01:49:31;;;;;;;3.30;1.40;;;;;;;9.80;87.36;96890.06;5071355;28;20199;-60
2023/05/17 01:51:58;;;;;;;2.53;1.37;;;;;;;9.80;85.71;96890.06;5072283;28;20199;-61
2023/05/17 01:54:37;;;;;;;2.83;1.20;;;;;;;9.82;87.51;96888.13;5074124;28;20587;-61
2023/05/17 01:57:06;;;;;;;2.30;1.20;;;;;;;9.84;85.16;96883.56;5071427;28;20641;-60
2023/05/17 01:59:34;;;;;;;2.73;1.30;;;;;;;9.79;83.47;96880.47;5071176;28;20279;-61
2023/05/17 02:02:05;;;;;;;3.80;1.50;;;;;;;9.86;84.62;96892.16;5069890;28;20624;-61
2023/05/17 02:04:32;;;;;;;3.37;1.40;;;;;;;9.81;84.13;96889.06;5071430;28;20205;-61
2023/05/17 02:06:59;;;;;;;3.60;1.43;;;;;;;9.83;83.55;96892.44;5070781;28;20643;-61
2023/05/17 02:09:25;;;;;;;1.80;1.30;;;;;;;9.83;86.38;96895.06;5070631;28;20198;-61
2023/05/17 02:11:51;;;;;;;3.50;1.23;;;;;;;9.82;85.56;96890.75;5071045;28;20225;-61
2023/05/17 02:14:18;;;;;;;3.70;1.33;;;;;;;9.82;83.61;96901.31;5070500;28;20202;-60
2023/05/17 02:16:46;;;;;;;2.50;1.33;;;;;;;9.81;86.32;96894.34;5071165;28;20217;-61
2023/05/17 02:19:13;;;;;;;3.97;1.50;;;;;;;9.83;91.72;96897.72;5071102;28;20202;-61
2023/05/17 02:21:40;;;;;;;1.70;1.10;;;;;;;9.82;91.59;96890.75;5070240;28;20642;-60
2023/05/17 02:24:07;;;;;;;4.57;1.80;;;;;;;9.80;88.92;96883.94;5070466;28;20651;-60
2023/05/17 02:26:33;;;;;;;3.40;1.63;;;;;;;9.80;87.58;96887.41;5071367;28;20214;-61
2023/05/17 02:29:00;;;;;;;3.57;1.50;;;;;;;9.79;91.31;96891.03;5072538;28;20210;-62
2023/05/17 02:31:26;;;;;;;4.20;1.67;;;;;;;9.80;83.63;96891.88;5074290;28;20214;-61
2023/05/17 02:33:54;;;;;;;4.17;1.80;;;;;;;9.79;84.59;96891.03;5071833;28;20206;-60
2023/05/17 02:36:21;;;;;;;3.90;1.60;;;;;;;9.78;79.35;96883.22;5071264;28;20198;-61
2023/05/17 02:38:47;;;;;;;3.30;1.30;;;;;;;9.81;83.83;96881.16;5070221;28;20199;-60
2023/05/17 02:41:14;;;;;;;1.47;1.27;;;;;;;9.80;87.12;96890.06;5071152;28;20663;-60
2023/05/17 02:43:40;;;;;;;5.67;1.70;;;;;;;9.81;90.48;96881.16;5070256;28;20195;-60
2023/05/17 02:46:07;;;;;;;3.13;1.57;;;;;;;9.69;82.50;96882.22;5070217;28;20206;-59
2023/05/17 02:48:33;;;;;;;3.30;1.40;;;;;;;9.73;83.38;96883.63;5070591;28;20201;-59
2023/05/17 02:51:01;;;;;;;3.40;1.27;;;;;;;9.73;83.56;96885.44;5071033;28;20199;-60
2023/05/17 02:53:27;;;;;;;2.67;1.20;;;;;;;9.72;88.48;96884.59;5072102;28;20538;-60
2023/05/17 02:55:56;;;;;;;5.33;1.60;;;;;;;9.67;85.15;96881.50;5071162;28;20218;-59
2023/05/17 02:58:23;;;;;;;3.10;1.27;;;;;;;9.69;84.17;96884.88;5070737;28;20198;-60
2023/05/17 03:00:49;;;;;;;6.23;1.30;;;;;;;9.67;80.68;96899.19;5070230;28;20219;-60
2023/05/17 03:03:16;;;;;;;2.07;1.20;;;;;;;9.67;82.74;96893.91;5070821;28;20222;-60
2023/05/17 03:05:43;;;;;;;5.33;1.57;;;;;;;9.67;82.42;96892.06;5069037;28;20236;-60
2023/05/17 03:08:10;;;;;;;1.93;1.00;;;;;;;9.66;84.80;96893.06;5072101;28;20210;-59
2023/05/17 03:10:37;;;;;;;1.90;1.13;;;;;;;9.61;82.33;96902.31;5073730;28;20635;-60
2023/05/17 03:13:03;;;;;;;2.13;1.13;;;;;;;9.66;85.92;96895.69;5073921;28;20351;-60
2023/05/17 03:15:30;;;;;;;3.30;1.00;;;;;;;9.67;90.91;96907.91;5073287;28;20202;-60
2023/05/17 03:17:56;;;;;;;4.13;1.80;;;;;;;9.66;93.83;96900.97;5073839;28;20669;-61
2023/05/17 03:20:23;;;;;;;2.67;1.30;;;;;;;9.66;90.75;96908.06;5073938;28;20291;-59
2023/05/17 03:22:50;;;;;;;1.87;1.17;;;;;;;9.65;93.44;96915.13;5073675;28;20238;-60
2023/05/17 03:25:18;;;;;;;2.07;1.20;;;;;;;9.61;86.16;96916.34;5073692;28;20206;-61
2023/05/17 03:27:44;;;;;;;3.10;1.20;;;;;;;9.51;82.10;96918.09;5073927;28;20202;-60
2023/05/17 03:30:11;;;;;;;1.67;1.10;;;;;;;9.59;87.47;96920.94;5073299;28;20208;-60
2023/05/17 03:32:39;;;;;;;4.17;1.47;;;;;;;9.59;85.39;96926.22;5073525;28;20202;-60
2023/05/17 03:35:05;;;;;;;4.17;1.67;;;;;;;9.60;88.27;96922.59;5073297;28;20203;-59
2023/05/17 03:37:32;;;;;;;2.17;1.20;;;;;;;9.55;82.83;96923.97;5073283;28;20546;-60
2023/05/17 03:39:58;;;;;;;2.70;1.40;;;;;;;9.55;82.48;96930.09;5073200;28;20237;-60
2023/05/17 03:42:26;;;;;;;1.43;1.20;;;;;;;9.62;88.58;96928.59;5073180;28;20560;-59
2023/05/17 03:44:53;;;;;;;2.17;1.10;;;;;;;9.62;90.93;96925.97;5073210;28;20561;-59
2023/05/17 03:47:22;;;;;;;4.30;1.43;;;;;;;9.60;89.91;96935.81;5074166;28;20538;-60
2023/05/17 03:49:48;;;;;;;4.50;0.87;;;;;;;9.55;83.85;96930.09;5073077;28;20694;-60
2023/05/17 03:52:15;;;;;;;7.87;1.67;;;;;;;9.53;81.74;96936.47;5073055;28;20198;-59
2023/05/17 03:54:41;;;;;;;3.57;1.37;;;;;;;9.58;84.46;96932.47;5073455;28;20280;-61
2023/05/17 03:57:08;;;;;;;3.33;1.43;;;;;;;9.59;84.86;96933.31;5073421;28;20228;-59
2023/05/17 03:59:36;;;;;;;2.90;1.17;;;;;;;9.60;86.88;96933.16;5072655;28;20539;-60
2023/05/17 04:02:02;;;;;;;2.77;1.50;;;;;;;9.57;85.78;96932.59;5072847;28;20218;-60
2023/05/17 04:04:28;;;;;;;3.60;1.43;;;;;;;9.62;84.83;96938.31;5073132;28;20210;-61
2023/05/17 04:06:55;;;;;;;2.50;1.17;;;;;;;9.61;88.43;96936.63;5072852;28;20217;-60
2023/05/17 04:09:22;;;;;;;2.47;1.13;;;;;;;9.62;87.69;96938.31;5073213;28;20211;-60
2023/05/17 04:11:48;;;;;;;3.00;1.50;;;;;;;9.57;83.45;96938.69;5073156;28;20515;-60
2023/05/17 04:14:15;;;;;;;2.83;1.57;;;;;;;9.52;82.78;96940.91;5072763;28;20229;-60
2023/05/17 04:16:42;;;;;;;3.47;1.33;;;;;;;9.54;81.87;96944.25;5073217;28;20210;-61
2023/05/17 04:19:09;;;;;;;7.23;1.50;;;;;;;9.53;81.32;96931.19;5072097;28;20213;-60
2023/05/17 04:21:35;;;;;;;2.70;1.47;;;;;;;9.57;80.94;96936.06;5072369;28;20280;-61
2023/05/17 04:24:02;;;;;;;2.87;1.50;;;;;;;9.53;82.72;96937.28;5072442;28;20207;-60
2023/05/17 04:26:29;;;;;;;6.23;1.60;;;;;;;9.59;84.33;96939.44;5073158;28;20301;-60
2023/05/17 04:28:55;;;;;;;2.73;1.73;;;;;;;9.58;83.17;96943.03;5071772;28;20199;-60
2023/05/17 04:31:22;;;;;;;3.10;1.40;;;;;;;9.59;85.94;96944.72;5073092;28;20206;-60
2023/05/17 04:33:50;;;;;;;4.07;1.37;;;;;;;9.63;83.51;96950.56;5072493;28;20298;-61
2023/05/17 04:36:17;;;;;;;2.37;1.30;;;;;;;9.61;81.05;96949.84;5072558;28;20214;-60
2023/05/17 04:38:43;;;;;;;1.50;1.17;;;;;;;9.63;81.90;96946.13;5071936;28;20230;-59
2023/05/17 04:41:10;;;;;;;2.07;1.37;;;;;;;9.60;81.84;96949.00;5073157;28;20223;-59
2023/05/17 04:43:37;;;;;;;2.37;1.00;;;;;;;9.64;84.50;96955.69;5072353;28;20194;-60
2023/05/17 04:46:04;;;;;;;3.10;1.23;;;;;;;9.72;87.96;96958.53;5072658;28;20584;-61
2023/05/17 04:48:31;;;;;;;2.63;1.33;;;;;;;9.79;89.41;96958.84;5072007;28;20301;-59
2023/05/17 04:51:02;;;;;;;4.93;1.30;;;;;;;9.70;82.16;96960.47;5072435;28;20597;-59
2023/05/17 04:53:29;;;;;;;1.87;1.47;;;;;;;9.73;81.72;96970.78;5074116;28;20203;-59
2023/05/17 04:55:55;;;;;;;2.50;1.27;;;;;;;9.80;80.70;96963.19;5073994;28;20260;-60
2023/05/17 04:58:23;;;;;;;2.13;1.33;;;;;;;9.86;81.74;96963.47;5073341;28;20260;-60
2023/05/17 05:00:49;;;;;;;1.63;1.40;;;;;;;9.84;81.78;96962.78;5072821;28;20911;-60
2023/05/17 05:03:15;;;;;;;2.13;1.20;;;;;;;9.83;84.65;96966.38;5073038;28;20268;-60
2023/05/17 05:05:42;;;;;;;3.17;1.40;;;;;;;9.89;83.90;96965.84;5071611;28;20202;-59
2023/05/17 05:08:10;;;;;;;3.23;1.53;;;;;;;9.89;82.64;96971.16;5070958;28;20210;-60
2023/05/17 05:10:37;;;;;;;2.37;1.37;;;;;;;9.87;81.08;96972.25;5072938;28;20530;-60
2023/05/17 05:13:03;;;;;;;4.73;1.37;;;;;;;9.77;80.87;96977.50;5072096;28;20210;-60
2023/05/17 05:15:30;;;;;;;2.23;1.33;;;;;;;9.83;83.90;96974.31;5071006;28;20217;-61
2023/05/17 05:17:56;;;;;;;3.17;1.30;;;;;;;9.89;85.34;96971.16;5071292;28;20295;-59
2023/05/17 05:20:23;;;;;;;2.43;1.70;;;;;;;9.87;85.32;96973.09;5071073;28;20202;-61
2023/05/17 05:22:49;;;;;;;1.83;1.33;;;;;;;9.85;82.62;96979.44;5071157;28;20284;-60
2023/05/17 05:25:20;;;;;;;6.27;1.53;;;;;;;9.79;80.82;96983.47;5073852;28;20198;-60
2023/05/17 05:27:46;;;;;;;2.67;1.00;;;;;;;9.87;83.01;96983.66;5072005;28;20194;-69
2023/05/17 05:30:20;;;;;;;2.20;1.10;;;;;;;9.90;83.73;96986.03;5070632;28;20202;-61
2023/05/17 05:32:47;;;;;;;1.93;1.53;;;;;;;9.82;82.69;96985.84;5071121;28;20233;-62
2023/05/17 05:35:15;;;;;;;4.13;1.33;;;;;;;9.97;88.00;96984.53;5069839;28;20206;-62
2023/05/17 05:37:42;;;;;;;4.83;1.57;;;;;;;10.02;87.16;96982.31;5069339;28;20221;-62
2023/05/17 05:40:09;;;;;;;3.20;1.43;;;;;;;10.09;81.42;96981.81;5071034;28;20256;-62
2023/05/17 05:42:37;;;;;;;2.47;1.80;;;;;;;9.88;79.57;96993.22;5073463;28;20226;-60
2023/05/17 05:45:04;;;;;;;5.43;1.57;;;;;;;9.91;79.76;96987.72;5073667;28;20207;-61
2023/05/17 05:47:30;;;;;;;3.13;1.83;;;;;;;9.94;81.57;96992.75;5070707;28;20512;-60
2023/05/17 05:49:57;;;;;;;5.87;1.80;;;;;;;9.94;81.54;96990.09;5070418;28;20202;-61
2023/05/17 05:52:23;;;;;;;2.73;1.37;;;;;;;9.80;79.96;96993.06;5071615;28;20565;-60
2023/05/17 05:54:50;;;;;;;4.73;1.50;;;;;;;9.88;79.21;96995.88;5071089;28;20198;-61
2023/05/17 05:57:16;;;;;;;4.77;1.70;;;;;;;9.83;79.62;96998.09;5072083;28;20217;-60
2023/05/17 05:59:44;;;;;;;3.43;1.50;;;;;;;9.95;84.57;97004.94;5069958;28;20206;-60
2023/05/17 06:02:11;;;;;;;2.30;1.53;;;;;;;9.85;81.27;97001.41;5071009;28;20230;-60
2023/05/17 06:04:38;;;;;;;3.80;1.47;;;;;;;9.89;80.58;97010.78;5070698;28;20292;-60
2023/05/17 06:07:04;;;;;;;1.47;1.07;;;;;;;9.87;82.64;96998.66;5072555;28;20206;-60
2023/05/17 06:09:31;;;;;;;4.50;1.37;;;;;;;9.77;79.66;97013.63;5071991;28;20840;-60
2023/05/17 06:11:57;;;;;;;5.10;1.67;;;;;;;9.94;81.08;97013.88;5070833;28;20201;-60
2023/05/17 06:14:24;;;;;;;4.70;1.77;;;;;;;9.91;81.48;97016.78;5072774;28;20206;-60
2023/05/17 06:16:54;;;;;;;3.57;1.50;;;;;;;10.08;82.78;97014.50;5072492;28;20194;-60
2023/05/17 06:19:22;;;;;;;3.20;1.60;;;;;;;9.83;78.70;97018.38;5073174;28;20203;-60
2023/05/17 06:21:48;;;;;;;3.37;1.77;;;;;;;9.94;78.96;97016.50;5070917;28;20230;-62
2023/05/17 06:24:15;;;;;;;3.80;1.40;;;;;;;9.93;79.55;97014.84;5070418;28;20207;-60
2023/05/17 06:26:42;;;;;;;5.23;1.70;;;;;;;10.01;81.32;97022.09;5070375;28;20290;-60
2023/05/17 06:29:10;;;;;;;5.93;1.53;;;;;;;10.13;81.02;97020.25;5072346;28;20202;-61
2023/05/17 06:31:37;;;;;;;3.57;1.30;;;;;;;10.30;81.03;97022.28;5070355;28;20198;-61
2023/05/17 06:34:05;;;;;;;4.50;1.83;;;;;;;10.47;79.88;97030.44;5070289;28;20650;-61
2023/05/17 06:36:31;;;;;;;2.23;1.37;;;;;;;10.73;80.25;97030.00;5070406;28;20666;-61
2023/05/17 06:38:58;;;;;;;4.73;1.80;;;;;;;10.85;75.99;97032.38;5069299;28;20274;-60
2023/05/17 06:41:24;;;;;;;2.73;1.40;;;;;;;10.84;75.05;97028.06;5070696;28;20222;-61
2023/05/17 06:43:51;;;;;;;3.13;1.60;;;;;;;11.05;77.97;97029.78;5074573;28;20209;-60
2023/05/17 06:46:17;;;;;;;3.87;1.30;;;;;;;10.88;75.43;97040.03;5076368;28;20220;-61
2023/05/17 06:48:44;;;;;;;4.20;1.40;;;;;;;11.11;74.27;97039.81;5075102;28;20239;-61
2023/05/17 06:51:12;;;;;;;4.90;1.80;;;;;;;10.89;73.40;97046.16;5077297;28;20213;-61
2023/05/17 06:53:38;;;;;;;3.83;1.40;;;;;;;10.89;73.68;97046.16;5077135;28;20670;-61
2023/05/17 06:56:05;;;;;;;1.93;1.40;;;;;;;10.78;74.32;97044.47;5077093;28;20551;-61
2023/05/17 06:58:31;;;;;;;3.37;1.60;;;;;;;10.63;73.53;97048.44;5076851;28;20206;-60
2023/05/17 07:00:58;;;;;;;1.97;1.27;;;;;;;10.53;74.70;97050.22;5077172;28;20198;-62
2023/05/17 07:03:25;;;;;;;4.27;1.33;;;;;;;10.46;74.53;97046.44;5076807;28;20212;-60
2023/05/17 07:05:51;;;;;;;3.87;1.50;;;;;;;10.49;73.44;97056.75;5077268;28;20237;-59
2023/05/17 07:08:19;;;;;;;2.37;1.50;;;;;;;10.37;75.04;97042.78;5075680;28;20610;-61
2023/05/17 07:10:46;;;;;;;2.13;1.27;;;;;;;10.49;76.43;97049.66;5076251;28;20229;-61
2023/05/17 07:13:12;;;;;;;6.40;1.80;;;;;;;10.57;77.35;97056.91;5075624;28;20232;-60
2023/05/17 07:15:39;;;;;;;3.03;1.70;;;;;;;10.47;74.19;97051.59;5075309;28;21460;-61
2023/05/17 07:18:05;;;;;;;3.13;1.40;;;;;;;10.53;74.35;97057.31;5075961;28;20574;-59
2023/05/17 07:20:32;;;;;;;3.83;1.50;;;;;;;10.53;75.67;97052.03;5083620;28;20207;-61
2023/05/17 07:22:58;;;;;;;4.57;1.70;;;;;;;10.65;77.18;97054.47;5095868;28;20698;-61
2023/05/17 07:25:26;;;;;;;4.00;2.07;;;;;;;10.78;77.90;97048.91;5088987;28;20229;-62
2023/05/17 07:27:53;;;;;;;2.60;1.57;;;;;;;10.88;75.05;97061.22;5084021;28;20532;-61
2023/05/17 07:30:19;;;;;;;4.40;1.50;;;;;;;10.84;74.21;97062.44;5081720;28;20210;-60
2023/05/17 07:32:47;;;;;;;3.83;1.50;;;;;;;11.00;72.98;97056.66;5075193;28;20212;-62
2023/05/17 07:35:13;;;;;;;4.47;1.60;;;;;;;11.04;71.69;97057.22;5075792;28;20297;-62
2023/05/17 07:37:39;;;;;;;2.13;1.40;;;;;;;11.02;71.77;97061.81;5077426;28;20214;-61
2023/05/17 07:40:07;;;;;;;2.70;1.33;;;;;;;11.04;72.86;97055.41;5077425;28;20659;-60
2023/05/17 07:42:35;;;;;;;5.10;2.23;;;;;;;11.12;73.72;97047.63;5076910;28;20222;-62
2023/05/17 07:45:02;;;;;;;5.07;1.53;;;;;;;11.09;71.71;97055.81;5076546;28;20222;-60
2023/05/17 07:47:29;;;;;;;4.67;1.77;;;;;;;11.08;71.74;97062.13;5077788;28;20194;-61
2023/05/17 07:49:57;;;;;;;2.40;1.77;;;;;;;11.18;71.76;97056.84;5078159;28;20217;-61
2023/05/17 07:52:24;;;;;;;4.10;1.40;;;;;;;11.02;71.53;97060.00;5077684;28;20512;-61
2023/05/17 07:54:50;;;;;;;2.83;1.37;;;;;;;10.99;71.47;97063.75;5074675;28;20545;-60
2023/05/17 07:57:18;;;;;;;2.50;1.40;;;;;;;11.07;71.62;97065.72;5075430;28;20535;-61
2023/05/17 07:59:46;;;;;;;3.23;1.60;;;;;;;11.12;72.54;97060.88;5075176;28;20215;-63
2023/05/17 08:02:12;;;;;;;4.17;2.67;;;;;;;11.33;73.40;97058.13;5073560;28;20215;-61
2023/05/17 08:04:40;;;;;;;3.37;1.50;;;;;;;11.35;72.29;97061.44;5073248;28;20207;-60
2023/05/17 08:07:07;;;;;;;2.17;1.60;;;;;;;11.44;73.10;97065.94;5072531;28;20627;-60
2023/05/17 08:09:33;;;;;;;2.37;1.33;;;;;;;11.66;71.79;97062.16;5072523;28;20249;-61
2023/05/17 08:12:00;;;;;;;3.10;1.33;;;;;;;11.77;72.02;97065.53;5072128;28;20277;-60
2023/05/17 08:14:27;;;;;;;3.83;1.60;;;;;;;11.85;70.69;97073.63;5071516;28;20538;-60
2023/05/17 08:16:54;;;;;;;4.77;1.60;;;;;;;11.93;69.82;97065.84;5071338;28;20195;-61
2023/05/17 08:19:21;;;;;;;2.20;1.17;;;;;;;11.84;69.19;97079.06;5073165;28;20198;-61
2023/05/17 08:21:48;;;;;;;7.03;1.53;;;;;;;11.83;69.09;97075.56;5072787;28;20236;-60
2023/05/17 08:24:16;;;;;;;5.13;2.00;;;;;;;11.94;70.54;97088.69;5068790;28;20646;-61
2023/05/17 08:26:42;;;;;;;5.47;1.77;;;;;;;12.13;70.55;97065.78;5070976;28;20645;-61
2023/05/17 08:29:09;;;;;;;6.30;1.87;;;;;;;12.36;70.00;97075.09;5071198;28;20623;-61
2023/05/17 08:31:35;;;;;;;4.83;1.70;;;;;;;12.55;70.69;97071.53;5071181;28;20205;-60
2023/05/17 08:34:03;;;;;;;4.37;1.63;;;;;;;12.58;70.20;97072.09;5071364;28;20328;-61
2023/05/17 08:36:30;;;;;;;3.63;1.97;;;;;;;12.80;69.45;97069.06;5070995;28;20210;-61
2023/05/17 08:38:56;;;;;;;3.90;1.60;;;;;;;12.58;66.86;97077.41;5071609;28;20214;-59
2023/05/17 08:41:23;;;;;;;3.27;1.70;;;;;;;12.25;67.47;97076.09;5072064;28;20214;-60
2023/05/17 08:43:49;;;;;;;4.90;1.47;;;;;;;12.40;67.42;97076.47;5071118;28;20198;-60
2023/05/17 08:46:17;;;;;;;4.87;1.57;;;;;;;12.42;67.72;97071.88;5072374;28;20301;-60
2023/05/17 08:48:46;;;;;;;3.03;1.53;;;;;;;12.32;68.05;97071.06;5072092;28;20263;-61
2023/05/17 08:51:15;;;;;;;2.80;1.33;;;;;;;12.19;67.45;97070.50;5072598;28;20221;-60
2023/05/17 08:53:45;;;;;;;4.03;1.30;;;;;;;12.30;67.18;97071.19;5072123;28;20209;-60
2023/05/17 08:56:13;;;;;;;5.10;1.57;;;;;;;12.10;68.02;97066.06;5072758;28;20211;-60
2023/05/17 08:58:43;;;;;;;4.53;1.67;;;;;;;12.30;68.26;97065.03;5071322;28;20230;-60
2023/05/17 09:01:09;;;;;;;4.87;1.33;;;;;;;12.44;67.83;97057.47;5071048;28;20199;-62
2023/05/17 09:03:38;;;;;;;4.90;1.43;;;;;;;12.43;67.69;97063.75;5071546;28;20229;-62
2023/05/17 09:06:05;;;;;;;4.17;1.40;;;;;;;12.35;66.91;97073.44;5071772;28;20202;-62
2023/05/17 09:08:33;;;;;;;3.03;1.90;;;;;;;12.21;68.03;97071.22;5071827;28;20210;-62
2023/05/17 09:11:00;;;;;;;3.43;1.80;;;;;;;12.31;67.27;97077.34;5072002;28;20207;-60
2023/05/17 09:13:26;;;;;;;4.50;1.60;;;;;;;12.19;67.92;97081.13;5071622;28;20210;-64
2023/05/17 09:15:53;;;;;;;2.80;1.77;;;;;;;12.10;67.89;97082.81;5072171;28;20249;-63
2023/05/17 09:18:29;;;;;;;2.77;1.33;;;;;;;12.14;67.78;97083.38;5071673;28;20294;-62
2023/05/17 09:20:55;;;;;;;3.03;1.30;;;;;;;12.19;68.28;97087.25;5072146;28;20205;-63
2023/05/17 09:23:22;;;;;;;5.30;1.60;;;;;;;12.24;67.39;97078.88;5070738;28;20288;-63
2023/05/17 09:25:49;;;;;;;2.57;1.00;;;;;;;12.10;68.41;97082.81;5071839;28;20225;-63
2023/05/17 09:28:18;;;;;;;2.00;1.50;;;;;;;12.19;67.75;97086.41;5070153;28;20328;-64
2023/05/17 09:30:45;;;;;;;2.33;1.20;;;;;;;12.06;67.90;97084.09;5069802;28;20642;-65
2023/05/17 09:33:11;;;;;;;3.33;1.47;;;;;;;12.03;67.13;97081.72;5071255;28;20222;-62
2023/05/17 09:35:38;;;;;;;2.37;1.00;;;;;;;11.76;66.07;97082.41;5070805;28;20224;-61
2023/05/17 09:38:06;;;;;;;2.17;1.30;;;;;;;11.97;65.41;97077.00;5067835;28;20234;-61
2023/05/17 09:40:33;;;;;;;4.97;1.47;;;;;;;11.84;65.13;97081.72;5071296;28;20210;-62
2023/05/17 09:43:01;;;;;;;3.70;1.40;;;;;;;11.83;66.25;97082.72;5069041;28;20662;-61
2023/05/17 09:45:28;;;;;;;3.90;1.97;;;;;;;11.96;66.10;97080.59;5076883;28;20228;-63
2023/05/17 09:47:54;;;;;;;3.87;1.50;;;;;;;12.01;68.09;97083.66;5070932;28;20208;-61
2023/05/17 09:50:21;;;;;;;5.10;1.57;;;;;;;12.10;65.00;97092.59;5078459;28;20225;-61
2023/05/17 09:52:48;;;;;;;3.97;1.53;;;;;;;12.09;66.49;97085.59;5079128;28;20502;-62
2023/05/17 09:55:14;;;;;;;4.73;1.60;;;;;;;12.19;66.97;97095.22;5074611;28;20207;-61
2023/05/17 09:57:42;;;;;;;6.57;1.40;;;;;;;12.25;65.01;97091.19;5074041;28;20531;-62
2023/05/17 10:00:12;;;;;;;4.13;1.40;;;;;;;12.37;64.44;97095.31;5075334;28;20221;-61
2023/05/17 10:02:39;;;;;;;6.77;1.60;;;;;;;12.49;66.12;97094.19;5071305;28;20227;-62
2023/05/17 10:05:10;;;;;;;1.83;1.13;;;;;;;12.51;63.91;97091.38;5070962;28;20230;-62
2023/05/17 10:07:37;;;;;;;2.00;1.60;;;;;;;12.85;65.34;97082.75;5070677;28;20206;-62
2023/05/17 10:10:05;;;;;;;2.27;1.43;;;;;;;13.07;67.87;97073.56;5071154;28;20206;-61
2023/05/17 10:12:33;;;;;;;3.70;1.40;;;;;;;13.28;66.21;97076.84;5070991;28;20195;-61
2023/05/17 10:15:02;;;;;;;1.83;1.30;;;;;;;13.27;65.58;97083.13;5071705;28;20352;-62
2023/05/17 10:17:29;;;;;;;2.43;1.33;;;;;;;13.31;64.37;97081.00;5071091;28;20199;-61
2023/05/17 10:19:57;;;;;;;3.40;1.57;;;;;;;13.28;67.24;97086.63;5072227;28;20309;-62
2023/05/17 10:22:23;;;;;;;2.97;1.27;;;;;;;13.18;62.29;97086.66;5071318;28;20248;-60
2023/05/17 10:24:51;;;;;;;4.53;1.60;;;;;;;13.27;64.81;97079.63;5071671;28;20206;-61
2023/05/17 10:27:21;;;;;;;2.97;1.73;;;;;;;13.36;62.73;97086.69;5071124;28;20230;-60
2023/05/17 10:29:48;;;;;;;4.33;1.93;;;;;;;13.23;61.51;97084.41;5071011;28;20206;-61
2023/05/17 10:32:16;;;;;;;4.30;1.40;;;;;;;13.55;62.70;97081.25;5071095;28;20260;-61
2023/05/17 10:34:44;;;;;;;2.50;1.13;;;;;;;13.55;62.76;97077.78;5070810;28;20206;-62
2023/05/17 10:37:11;;;;;;;3.60;1.47;;;;;;;13.51;61.47;97084.38;5068956;28;20206;-61
2023/05/17 10:39:38;;;;;;;3.10;1.10;;;;;;;13.55;62.60;97078.59;5069161;28;20214;-63
2023/05/17 10:42:08;;;;;;;4.90;1.73;;;;;;;13.74;62.08;97083.78;5070217;28;20260;-63
2023/05/17 10:44:35;;;;;;;3.20;1.73;;;;;;;13.68;60.63;97080.88;5067719;28;20298;-64
2023/05/17 10:47:01;;;;;;;4.07;1.87;;;;;;;13.67;62.35;97074.75;5068644;28;20198;-64
2023/05/17 10:49:30;;;;;;;4.63;1.80;;;;;;;13.59;60.33;97077.31;5070511;28;20194;-63
2023/05/17 10:51:59;;;;;;;4.73;1.57;;;;;;;13.58;62.75;97078.31;5070978;28;21329;-63
2023/05/17 10:54:35;;;;;;;3.93;1.50;;;;;;;13.39;60.57;97068.63;5069879;28;20213;-61
2023/05/17 10:57:04;;;;;;;3.63;1.35;;;;;;;13.31;60.39;97075.69;5069266;28;20203;-63
2023/05/17 10:59:31;;;;;;;1.20;1.10;;;;;;;13.36;62.34;97073.41;5068421;28;20678;-63
2023/05/17 11:02:00;;;;;;;2.60;1.33;;;;;;;13.23;61.96;97078.25;5069977;28;20198;-63
2023/05/17 11:04:28;;;;;;;4.17;1.60;;;;;;;13.40;62.86;97069.47;5069204;28;20674;-63
2023/05/17 11:07:24;;;;;;;2.93;1.50;;;;;;;13.42;62.15;97063.03;5069824;28;20194;-62
2023/05/17 11:09:53;;;;;;;2.80;1.40;;;;;;;13.65;64.64;97058.09;5069651;28;20206;-63
2023/05/17 11:12:29;;;;;;;4.37;1.70;;;;;;;13.77;63.80;97067.53;5069865;28;20288;-64
2023/05/17 11:14:56;;;;;;;2.90;1.70;;;;;;;13.70;59.38;97066.47;5069768;28;20202;-62
2023/05/17 11:17:25;;;;;;;3.13;1.50;;;;;;;13.68;58.37;97063.13;5069621;28;20640;-63
2023/05/17 11:20:01;;;;;;;3.53;1.53;;;;;;;13.71;59.75;97059.34;5070211;28;20710;-62
2023/05/17 11:22:36;;;;;;;3.47;1.90;;;;;;;13.73;60.34;97050.22;5069952;28;20234;-63
2023/05/17 11:25:07;;;;;;;14.23;1.93;;;;;;;13.90;61.68;97053.84;5070142;28;20252;-62
2023/05/17 11:27:36;;;;;;;5.20;1.70;;;;;;;13.93;60.16;97051.72;5069866;28;20704;-63
2023/05/17 11:30:09;;;;;;;3.03;1.20;;;;;;;13.99;59.00;97057.41;5070569;28;20224;-61
2023/05/17 11:32:35;;;;;;;3.97;2.05;;;;;;;13.90;59.41;97056.50;5072196;28;20543;-62
2023/05/17 11:35:02;;;;;;;2.80;1.25;;;;;;;14.08;61.27;97049.34;5072856;28;20202;-63
2023/05/17 11:37:30;;;;;;;3.75;1.92;;;;;;;14.19;61.33;97045.59;5072844;28;20207;-64